createdAt,value
2022-08-04T00:00:29.755Z,50
2022-08-04T00:03:29.752Z,51
2022-08-04T00:06:29.747Z,51
2022-08-04T00:09:29.754Z,51
2022-08-04T00:12:31.326Z,51
2022-08-04T00:15:29.761Z,51
2022-08-04T00:18:29.754Z,51
2022-08-04T00:21:29.757Z,51
2022-08-04T00:24:29.756Z,51
2022-08-04T00:27:29.757Z,51
2022-08-04T00:30:29.755Z,51
2022-08-04T00:33:29.752Z,51
2022-08-04T00:36:29.754Z,51
2022-08-04T00:39:29.785Z,51
2022-08-04T00:42:29.754Z,51
2022-08-04T00:45:29.763Z,51
2022-08-04T00:48:29.756Z,51
2022-08-04T00:51:29.755Z,51
2022-08-04T00:54:29.766Z,51
2022-08-04T00:57:33.300Z,51
2022-08-04T01:00:29.773Z,51
2022-08-04T01:03:29.756Z,51
2022-08-04T01:06:29.755Z,51
2022-08-04T01:09:29.757Z,51
2022-08-04T01:12:29.769Z,51
2022-08-04T01:15:29.779Z,51
2022-08-04T01:18:29.766Z,51
2022-08-04T01:21:29.772Z,51
2022-08-04T01:24:29.764Z,51
2022-08-04T01:27:29.767Z,51
2022-08-04T01:30:29.764Z,51
2022-08-04T01:33:29.768Z,51
2022-08-04T01:36:29.802Z,51
2022-08-04T01:39:29.800Z,51
2022-08-04T01:42:31.257Z,51
2022-08-04T01:45:29.781Z,51
2022-08-04T01:48:29.767Z,51
2022-08-04T01:51:29.766Z,51
2022-08-04T01:54:29.782Z,51
2022-08-04T01:57:37.336Z,51
2022-08-04T02:00:29.777Z,51
2022-08-04T02:04:19.310Z,51
2022-08-04T02:06:29.767Z,52
2022-08-04T02:09:29.782Z,51
2022-08-04T02:12:29.818Z,51
2022-08-04T02:15:29.785Z,51
2022-08-04T02:18:29.781Z,51
2022-08-04T02:21:42.230Z,51
2022-08-04T02:24:29.781Z,51
2022-08-04T02:27:29.780Z,51
2022-08-04T02:30:29.785Z,51
2022-08-04T02:33:29.783Z,51
2022-08-04T02:36:29.770Z,51
2022-08-04T02:39:29.845Z,51
2022-08-04T02:42:29.785Z,52
2022-08-04T02:45:29.860Z,52
2022-08-04T02:48:31.557Z,52
2022-08-04T02:51:29.795Z,52
2022-08-04T02:54:32.642Z,52
2022-08-04T02:57:29.789Z,52
2022-08-04T03:00:29.796Z,52
2022-08-04T03:03:29.796Z,52
2022-08-04T03:06:29.793Z,52
2022-08-04T03:09:29.787Z,52
2022-08-04T03:12:29.802Z,52
2022-08-04T03:15:29.801Z,52
2022-08-04T03:18:29.789Z,52
2022-08-04T03:21:29.790Z,52
2022-08-04T03:24:29.789Z,52
2022-08-04T03:27:29.793Z,52
2022-08-04T03:30:29.802Z,52
2022-08-04T03:33:29.806Z,52
2022-08-04T03:36:30.244Z,52
2022-08-04T03:39:29.854Z,52
2022-08-04T03:42:29.799Z,52
2022-08-04T03:45:29.803Z,52
2022-08-04T03:48:29.800Z,52
2022-08-04T03:51:32.414Z,52
2022-08-04T03:54:29.794Z,52
2022-08-04T03:57:29.800Z,52
2022-08-04T04:00:29.813Z,52
2022-08-04T04:03:29.811Z,52
2022-08-04T04:06:29.800Z,52
2022-08-04T04:09:30.803Z,52
2022-08-04T04:12:29.805Z,52
2022-08-04T04:15:29.811Z,52
2022-08-04T04:18:29.811Z,52
2022-08-04T04:21:29.806Z,52
2022-08-04T04:24:32.821Z,52
2022-08-04T04:27:29.804Z,52
2022-08-04T04:30:29.816Z,52
2022-08-04T04:33:29.812Z,52
2022-08-04T04:36:29.805Z,52
2022-08-04T04:39:29.845Z,52
2022-08-04T04:42:29.807Z,52
2022-08-04T04:45:29.812Z,52
2022-08-04T04:48:29.813Z,52
2022-08-04T04:51:29.803Z,52
2022-08-04T04:54:29.822Z,52
2022-08-04T04:57:52.988Z,52
2022-08-04T05:00:29.813Z,52
2022-08-04T05:03:29.832Z,52
2022-08-04T05:06:29.812Z,52
2022-08-04T05:09:29.820Z,52
2022-08-04T05:12:45.038Z,52
2022-08-04T05:18:29.853Z,53
2022-08-04T05:21:29.817Z,53
2022-08-04T05:24:29.828Z,53
2022-08-04T05:27:29.821Z,53
2022-08-04T05:30:29.828Z,53
2022-08-04T05:33:29.815Z,53
2022-08-04T05:36:40.789Z,53
2022-08-04T05:39:33.924Z,53
2022-08-04T05:42:29.847Z,53
2022-08-04T05:48:29.813Z,53
2022-08-04T05:51:29.823Z,53
2022-08-04T05:54:29.822Z,53
2022-08-04T05:57:29.821Z,53
2022-08-04T06:00:40.582Z,53
2022-08-04T06:03:29.820Z,53
2022-08-04T06:06:29.826Z,53
2022-08-04T06:09:29.829Z,53
2022-08-04T06:12:29.814Z,53
2022-08-04T06:15:29.818Z,53
2022-08-04T06:18:34.430Z,53
2022-08-04T06:21:29.815Z,53
2022-08-04T06:24:29.819Z,53
2022-08-04T06:27:29.820Z,53
2022-08-04T06:30:29.818Z,52
2022-08-04T06:33:29.835Z,52
2022-08-04T06:36:29.826Z,52
2022-08-04T06:39:29.876Z,52
2022-08-04T06:42:29.826Z,52
2022-08-04T06:45:29.843Z,52
2022-08-04T06:48:31.733Z,52
2022-08-04T06:51:37.165Z,52
2022-08-04T06:57:29.831Z,52
2022-08-04T07:00:29.825Z,51
2022-08-04T07:03:29.826Z,51
2022-08-04T07:06:29.826Z,51
2022-08-04T07:09:29.830Z,51
2022-08-04T07:12:29.827Z,51
2022-08-04T07:15:29.828Z,51
2022-08-04T07:18:29.822Z,51
2022-08-04T07:21:29.827Z,51
2022-08-04T07:24:29.826Z,51
2022-08-04T07:27:48.029Z,51
2022-08-04T07:30:29.822Z,51
2022-08-04T07:33:29.832Z,51
2022-08-04T07:36:34.151Z,51
2022-08-04T07:39:30.013Z,51
2022-08-04T07:42:29.829Z,51
2022-08-04T07:45:29.864Z,51
2022-08-04T07:48:29.857Z,51
2022-08-04T07:51:29.852Z,51
2022-08-04T07:54:29.851Z,51
2022-08-04T07:57:40.852Z,51
2022-08-04T08:00:29.865Z,51
2022-08-04T08:03:29.962Z,51
2022-08-04T08:06:32.011Z,51
2022-08-04T08:09:29.854Z,50
2022-08-04T08:12:34.624Z,50
2022-08-04T08:15:29.856Z,50
2022-08-04T08:18:29.856Z,50
2022-08-04T08:21:29.859Z,50
2022-08-04T08:24:29.895Z,50
2022-08-04T08:27:29.863Z,50
2022-08-04T08:30:31.363Z,50
2022-08-04T08:33:29.855Z,49
2022-08-04T08:36:29.862Z,49
2022-08-04T08:39:29.925Z,49
2022-08-04T08:42:29.857Z,49
2022-08-04T08:45:29.856Z,49
2022-08-04T08:48:29.860Z,49
2022-08-04T08:51:29.860Z,49
2022-08-04T08:54:29.856Z,48
2022-08-04T08:57:29.856Z,48
2022-08-04T09:00:31.565Z,48
2022-08-04T09:03:29.859Z,48
2022-08-04T09:06:29.858Z,48
2022-08-04T09:09:29.852Z,48
2022-08-04T09:12:29.858Z,48
2022-08-04T09:15:29.864Z,48
2022-08-04T09:18:29.861Z,48
2022-08-04T09:21:29.858Z,47
2022-08-04T09:24:34.698Z,47
2022-08-04T09:27:29.858Z,47
2022-08-04T09:30:29.863Z,47
2022-08-04T09:33:45.180Z,47
2022-08-04T09:36:29.863Z,47
2022-08-04T09:39:29.917Z,47
2022-08-04T09:42:30.287Z,47
2022-08-04T09:45:42.791Z,47
2022-08-04T09:48:29.859Z,46
2022-08-04T09:51:57.107Z,46
2022-08-04T09:54:30.780Z,46
2022-08-04T09:57:29.866Z,46
2022-08-04T10:00:38.512Z,46
2022-08-04T10:03:29.871Z,46
2022-08-04T10:06:29.860Z,46
2022-08-04T10:09:29.860Z,46
2022-08-04T10:12:29.862Z,45
2022-08-04T10:15:29.874Z,45
2022-08-04T10:18:29.860Z,45
2022-08-04T10:21:29.862Z,45
2022-08-04T10:24:29.865Z,44
2022-08-04T10:27:29.867Z,44
2022-08-04T10:33:29.871Z,44
2022-08-04T10:36:29.858Z,44
2022-08-04T10:39:41.788Z,44
2022-08-04T10:42:29.853Z,44
2022-08-04T10:45:29.871Z,43
2022-08-04T10:48:34.458Z,43
2022-08-04T10:51:29.871Z,43
2022-08-04T10:54:29.866Z,43
2022-08-04T10:57:29.873Z,43
2022-08-04T11:00:29.865Z,43
2022-08-04T11:03:29.899Z,42
2022-08-04T11:06:29.871Z,42
2022-08-04T11:09:29.867Z,42
2022-08-04T11:12:29.875Z,42
2022-08-04T11:15:29.862Z,42
2022-08-04T11:18:29.874Z,42
2022-08-04T11:21:29.866Z,42
2022-08-04T11:24:29.871Z,42
2022-08-04T11:27:29.868Z,42
2022-08-04T11:30:29.867Z,41
2022-08-04T11:33:29.864Z,41
2022-08-04T11:36:29.869Z,41
2022-08-04T11:39:29.906Z,41
2022-08-04T11:45:29.861Z,40
2022-08-04T11:48:29.874Z,40
2022-08-04T11:51:29.871Z,40
2022-08-04T11:54:29.911Z,39
2022-08-04T11:57:35.529Z,39
2022-08-04T12:00:29.869Z,39
2022-08-04T12:03:29.881Z,39
2022-08-04T12:06:29.875Z,38
2022-08-04T12:09:29.868Z,38
2022-08-04T12:12:29.879Z,38
2022-08-04T12:15:29.862Z,38
2022-08-04T12:18:29.873Z,38
2022-08-04T12:21:30.465Z,38
2022-08-04T12:24:29.878Z,37
2022-08-04T12:27:30.735Z,37
2022-08-04T12:30:54.298Z,37
2022-08-04T12:33:41.471Z,37
2022-08-04T12:36:29.880Z,37
2022-08-04T12:39:29.894Z,36
2022-08-04T12:42:29.881Z,36
2022-08-04T12:45:29.861Z,36
2022-08-04T12:48:29.878Z,36
2022-08-04T12:51:31.264Z,36
2022-08-04T12:54:29.885Z,36
2022-08-04T12:57:29.877Z,35
2022-08-04T13:00:32.103Z,35
2022-08-04T13:03:29.879Z,35
2022-08-04T13:06:29.896Z,35
2022-08-04T13:09:29.912Z,35
2022-08-04T13:12:32.123Z,34
2022-08-04T13:15:29.879Z,34
2022-08-04T13:18:32.183Z,34
2022-08-04T13:24:32.573Z,35
2022-08-04T13:27:43.107Z,34
2022-08-04T13:30:29.880Z,35
2022-08-04T13:33:29.881Z,35
2022-08-04T13:36:29.883Z,34
2022-08-04T13:39:29.932Z,35
2022-08-04T13:42:29.905Z,34
2022-08-04T13:45:32.395Z,34
2022-08-04T13:48:32.060Z,35
2022-08-04T13:51:57.207Z,34
2022-08-04T13:54:30.105Z,34
2022-08-04T13:57:29.885Z,34
2022-08-04T14:00:30.623Z,35
2022-08-04T14:03:29.887Z,35
2022-08-04T14:06:29.902Z,35
2022-08-04T14:09:34.988Z,35
2022-08-04T14:12:37.359Z,35
2022-08-04T14:15:55.038Z,35
2022-08-04T14:18:29.898Z,35
2022-08-04T14:24:29.905Z,35
2022-08-04T14:27:29.891Z,35
2022-08-04T14:30:29.909Z,35
2022-08-04T14:34:03.350Z,34
2022-08-04T14:36:29.911Z,34
2022-08-04T14:39:30.020Z,34
2022-08-04T14:42:29.912Z,34
2022-08-04T14:45:29.916Z,34
2022-08-04T14:48:29.922Z,34
2022-08-04T14:51:36.255Z,34
2022-08-04T14:54:29.916Z,34
2022-08-04T14:57:29.912Z,34
2022-08-04T15:00:29.923Z,34
2022-08-04T15:03:29.918Z,33
2022-08-04T15:09:29.923Z,33
2022-08-04T15:12:29.915Z,33
2022-08-04T15:15:36.812Z,33
2022-08-04T15:18:29.921Z,33
2022-08-04T15:24:29.922Z,33
2022-08-04T15:27:29.918Z,33
2022-08-04T15:30:29.915Z,33
2022-08-04T15:33:33.635Z,33
2022-08-04T15:36:29.920Z,33
2022-08-04T15:39:29.980Z,33
2022-08-04T15:42:29.921Z,33
2022-08-04T15:46:02.689Z,33
2022-08-04T15:48:29.918Z,33
2022-08-04T15:51:32.328Z,33
2022-08-04T15:54:32.869Z,33
2022-08-04T15:57:29.918Z,33
2022-08-04T16:00:29.916Z,33
2022-08-04T16:03:52.994Z,33
2022-08-04T16:06:30.356Z,34
2022-08-04T16:09:46.012Z,34
2022-08-04T16:12:52.568Z,34
2022-08-04T16:15:29.921Z,34
2022-08-04T16:18:29.925Z,34
2022-08-04T16:21:29.918Z,34
2022-08-04T16:24:29.935Z,35
2022-08-04T16:27:29.922Z,35
2022-08-04T16:30:29.927Z,35
2022-08-04T16:33:44.004Z,35
2022-08-04T16:36:29.924Z,35
2022-08-04T16:39:30.006Z,35
2022-08-04T16:42:29.934Z,35
2022-08-04T16:45:29.918Z,35
2022-08-04T16:48:29.917Z,35
2022-08-04T16:51:29.922Z,35
2022-08-04T16:54:29.928Z,35
2022-08-04T16:57:29.921Z,35
2022-08-04T17:00:29.928Z,35
2022-08-04T17:03:29.928Z,35
2022-08-04T17:06:29.934Z,35
2022-08-04T17:09:29.934Z,35
2022-08-04T17:12:29.938Z,35
2022-08-04T17:15:29.932Z,35
2022-08-04T17:18:29.927Z,35
2022-08-04T17:21:29.944Z,35
2022-08-04T17:24:29.939Z,36
2022-08-04T17:28:05.897Z,36
2022-08-04T17:30:29.934Z,36
2022-08-04T17:33:54.118Z,36
2022-08-04T17:36:29.941Z,36
2022-08-04T17:39:30.016Z,36
2022-08-04T17:42:29.949Z,36
2022-08-04T17:45:53.157Z,36
2022-08-04T17:48:29.942Z,36
2022-08-04T17:52:02.117Z,36
2022-08-04T17:54:36.896Z,36
2022-08-04T17:57:29.939Z,36
2022-08-04T18:00:33.445Z,37
2022-08-04T18:03:30.199Z,37
2022-08-04T18:06:29.940Z,37
2022-08-04T18:09:57.518Z,37
2022-08-04T18:12:29.948Z,36
2022-08-04T18:15:40.628Z,36
2022-08-04T18:18:30.089Z,36
2022-08-04T18:21:29.942Z,36
2022-08-04T18:24:34.905Z,36
2022-08-04T18:30:34.264Z,36
2022-08-04T18:33:37.442Z,36
2022-08-04T18:36:32.374Z,36
2022-08-04T18:40:10.360Z,36
2022-08-04T18:42:29.950Z,36
2022-08-04T18:45:32.458Z,37
2022-08-04T18:48:36.490Z,37
2022-08-04T18:51:30.630Z,37
2022-08-04T18:54:29.958Z,38
2022-08-04T18:57:32.933Z,39
2022-08-04T19:00:29.966Z,39
2022-08-04T19:03:30.506Z,39
2022-08-04T19:06:29.998Z,39
2022-08-04T19:09:51.558Z,39
2022-08-04T19:12:29.951Z,39
2022-08-04T19:15:31.624Z,39
2022-08-04T19:18:29.959Z,40
2022-08-04T19:21:58.945Z,40
2022-08-04T19:24:33.792Z,40
2022-08-04T19:27:38.639Z,40
2022-08-04T19:30:29.957Z,40
2022-08-04T19:33:55.666Z,41
2022-08-04T19:36:31.021Z,41
2022-08-04T19:39:29.983Z,42
2022-08-04T19:42:29.961Z,42
2022-08-04T19:45:40.167Z,42
2022-08-04T19:48:30.566Z,42
2022-08-04T19:51:30.335Z,42
2022-08-04T19:54:29.973Z,42
2022-08-04T19:57:35.490Z,41
2022-08-04T20:00:33.549Z,41
2022-08-04T20:04:08.676Z,41
2022-08-04T20:06:29.967Z,41
2022-08-04T20:09:29.962Z,41
2022-08-04T20:12:29.965Z,41
2022-08-04T20:15:29.964Z,40
2022-08-04T20:18:35.453Z,40
2022-08-04T20:21:36.933Z,40
2022-08-04T20:27:38.459Z,40
2022-08-04T20:30:29.982Z,40
2022-08-04T20:33:29.980Z,40
2022-08-04T20:36:29.974Z,40
2022-08-04T20:39:30.140Z,40
2022-08-04T20:42:33.533Z,40
2022-08-04T20:45:56.061Z,40
2022-08-04T20:48:29.984Z,40
2022-08-04T20:51:31.741Z,40
2022-08-04T20:54:29.994Z,40
2022-08-04T20:57:47.836Z,40
2022-08-04T21:00:30.361Z,40
2022-08-04T21:03:38.652Z,40
2022-08-04T21:06:29.984Z,40
2022-08-04T21:09:37.668Z,40
2022-08-04T21:12:29.998Z,40
2022-08-04T21:15:57.725Z,40
2022-08-04T21:18:29.996Z,40
2022-08-04T21:24:29.993Z,41
2022-08-04T21:27:29.991Z,41
2022-08-04T21:30:29.998Z,41
2022-08-04T21:33:48.218Z,41
2022-08-04T21:36:29.991Z,41
2022-08-04T21:39:32.285Z,41
2022-08-04T21:42:30.705Z,41
2022-08-04T21:45:31.354Z,41
2022-08-04T21:48:29.999Z,41
2022-08-04T21:51:57.664Z,42
2022-08-04T21:54:29.997Z,42
2022-08-04T21:57:30.005Z,42
2022-08-04T22:00:30.015Z,42
2022-08-04T22:03:52.150Z,42
2022-08-04T22:06:29.995Z,42
2022-08-04T22:09:30.002Z,42
2022-08-04T22:12:30.201Z,42
2022-08-04T22:16:03.282Z,43
2022-08-04T22:18:29.999Z,43
2022-08-04T22:21:29.998Z,43
2022-08-04T22:24:30.080Z,43
2022-08-04T22:27:30.011Z,43
2022-08-04T22:30:33.060Z,44
2022-08-04T22:33:54.223Z,44
2022-08-04T22:36:30.005Z,44
2022-08-04T22:39:30.015Z,44
2022-08-04T22:42:30.013Z,44
2022-08-04T22:45:44.462Z,44
2022-08-04T22:48:31.911Z,44
2022-08-04T22:51:30.076Z,44
2022-08-04T22:54:31.773Z,44
2022-08-04T22:57:43.253Z,44
2022-08-04T23:00:30.008Z,44
2022-08-04T23:03:36.607Z,44
2022-08-04T23:06:30.005Z,44
2022-08-04T23:09:49.768Z,44
2022-08-04T23:12:30.007Z,44
2022-08-04T23:15:33.415Z,45
2022-08-04T23:18:30.015Z,45
2022-08-04T23:21:30.005Z,45
2022-08-04T23:24:30.197Z,45
2022-08-04T23:27:33.817Z,45
2022-08-04T23:30:30.519Z,45
2022-08-04T23:33:49.581Z,45
2022-08-04T23:36:31.052Z,45
2022-08-04T23:39:42.470Z,45
2022-08-04T23:42:30.020Z,45
2022-08-04T23:46:04.890Z,45
2022-08-04T23:48:30.020Z,46
2022-08-04T23:51:30.012Z,46
2022-08-04T23:54:30.018Z,46
2022-08-04T23:57:30.774Z,46
